Antlers Park, Minnesota
Current Conditions -  °F | °C
As of 11:48 AM on Thursday 23 Oct 2014 (Local Time) from KLVN Reporting Station
Overcast Overcast  
Wind Chill: 55°   Ceiling: 1100
Heat Index: 55°   Visibility: 10mi
Dew Point: 52°   Wind: 6mph
Humidity: 88%   Direction: 240°WSW
Pressure: 30.01"   Gusts: NA
Location:  44.6349°N, 93.283°W
Report Text: KLVN 231648Z AUTO 24005KT 10SM OVC011 13/11 A3001 RMK AO2
Loading
Personal Weather Stations






























Interactive Weather Map
Tropical Storm Tracking
New forecast layout! Learn more

10-Day Weather Forecast

Advertisements
Track Severe Weather on mobile